Queen Of Burnaby — VCVV — position and weather

sailwx.info

Track history (hours):
 
Tides and Currents Weather Stations Pressure Air Temp Water Temp Dewpoint Dewpoint Depression Visibility Wind Speed Wind Dir Waves Ship Positions

Queen Of Burnaby

Last reported at 2016-Jun-25 20:10 UTC. Time now 2016-Jun-25 21:27 UTC.
Position N 49°44' W 124°55'.

Length 130 m; draft 4 m.

Type: Passenger vessel. MMSI: 316001246.

Date/timePositionNaut miles runAvg speedWind from/ knotsBaromVisibWave heightAir tempDewpointWater temp
2016-Jun-25 20:10N 49°44' W 124°55'812.4
2016-Jun-25 19:33N 49°47' W 124°45'9 8.6
2016-Jun-25 18:33N 49°50' W 124°32'1110.9
2016-Jun-25 17:33N 49°46' W 124°48'5 5.2
2016-Jun-25 16:33N 49°44' W 124°55'1212.4
2016-Jun-25 15:34N 49°49' W 124°37'3 2.7
2016-Jun-25 14:33N 49°50' W 124°34'1413.7
2016-Jun-25 13:33N 49°45' W 124°54'1 1.1
2016-Jun-25 12:21N 49°44' W 124°55'0 0.0
2016-Jun-25 11:33N 49°44' W 124°55'0 0.0
2016-Jun-25 07:27N 49°44' W 124°55'7 2.3
2016-Jun-25 04:34N 49°47' W 124°46'9 9.0
2016-Jun-25 03:31N 49°50' W 124°32'1313.2
2016-Jun-25 02:33N 49°46' W 124°50'3 3.5
2016-Jun-25 01:33N 49°44' W 124°55'1313.4
2016-Jun-25 00:34N 49°49' W 124°36'2 1.6
2016-Jun-24 23:34N 49°50' W 124°34'1413.6
2016-Jun-24 22:32N 49°45' W 124°54'1 0.5
2016-Jun-24 20:23N 49°44' W 124°55'1112.7
2016-Jun-24 19:34N 49°48' W 124°40'6 5.7
2016-Jun-24 18:33N 49°50' W 124°32'1111.3
2016-Jun-24 17:33N 49°46' W 124°48'5 5.0
2016-Jun-24 16:33N 49°44' W 124°55'1312.8
2016-Jun-24 15:33N 49°49' W 124°37'2 2.2
2016-Jun-24 14:33N 49°50' W 124°34'1313.2
2016-Jun-24 13:33N 49°45' W 124°53'2 1.8
2016-Jun-24 12:33N 49°44' W 124°55'0 0.0
2016-Jun-24 11:33N 49°44' W 124°55'0 0.0
2016-Jun-24 10:33N 49°44' W 124°55'0 0.0
2016-Jun-24 09:33N 49°44' W 124°55'7 1.5
2016-Jun-24 04:33N 49°48' W 124°45'9 9.0
2016-Jun-24 03:33N 49°50' W 124°32'1313.1
2016-Jun-24 02:34N 49°45' W 124°51'3 3.0
2016-Jun-24 01:33N 49°44' W 124°55'1413.8
2016-Jun-24 00:33N 49°49' W 124°35'1 0.6
2016-Jun-23 23:33N 49°50' W 124°35'1313.3
2016-Jun-23 22:33N 49°45' W 124°54'1 0.9
2016-Jun-23 21:24N 49°44' W 124°55'0 0.0
2016-Jun-23 20:18N 49°44' W 124°55'912.3
2016-Jun-23 19:33N 49°48' W 124°42'7 7.0
2016-Jun-23 18:33N 49°50' W 124°32'1211.5
2016-Jun-23 17:34N 49°46' W 124°49'4 4.5
2016-Jun-23 16:33N 49°45' W 124°55'1413.6
2016-Jun-23 15:33N 49°49' W 124°35'1 1.0
2016-Jun-23 14:33N 49°50' W 124°36'1313.1
2016-Jun-23 13:33N 49°45' W 124°54'1 0.3
2016-Jun-23 11:08N 49°44' W 124°55'0 0.0
2016-Jun-23 10:32N 49°44' W 124°55'0 0.0
2016-Jun-23 09:05N 49°44' W 124°55'5 1.1
2016-Jun-23 04:33N 49°47' W 124°48'1111.1
2016-Jun-23 03:33N 49°50' W 124°32'8 8.1
2016-Jun-23 02:33N 49°47' W 124°44'8 8.0
2016-Jun-23 01:33N 49°44' W 124°55'0 0.0
2016-Jun-22 23:27N 49°44' W 124°55'0 0.0
2016-Jun-22 20:16N 49°44' W 124°55'912.8
2016-Jun-22 19:34N 49°48' W 124°42'7 7.2
2016-Jun-22 18:33N 49°50' W 124°32'10 9.8
2016-Jun-22 17:33N 49°47' W 124°46'6 5.9
2016-Jun-22 16:29N 49°44' W 124°55'1212.9
2016-Jun-22 15:34N 49°49' W 124°38'3 2.9
2016-Jun-22 14:33N 49°50' W 124°34'1312.8
2016-Jun-22 13:33N 49°45' W 124°53'2 0.9
2016-Jun-22 11:30N 49°44' W 124°55'0 0.0
2016-Jun-22 10:24N 49°44' W 124°55'0 0.0
2016-Jun-22 08:30N 49°44' W 124°55'0 0.0
2016-Jun-22 07:30N 49°44' W 124°55'8 2.8
2016-Jun-22 04:34N 49°47' W 124°44'8 8.1
2016-Jun-22 03:33N 49°50' W 124°32'1312.8
2016-Jun-22 02:33N 49°46' W 124°51'3 3.2
2016-Jun-22 01:30N 49°44' W 124°55'1212.6
2016-Jun-22 00:33N 49°49' W 124°38'4 4.2
2016-Jun-21 23:34N 49°50' W 124°32'1313.4
2016-Jun-21 22:33N 49°46' W 124°52'3 2.5
2016-Jun-21 21:31N 49°44' W 124°55'0 0.0
2016-Jun-21 20:28N 49°44' W 124°55'7 7.4
2016-Jun-21 19:33N 49°47' W 124°46'10 9.5
2016-Jun-21 18:33N 49°50' W 124°32'9 9.4
2016-Jun-21 17:33N 49°47' W 124°46'7 6.3
2016-Jun-21 16:28N 49°44' W 124°55'1112.4
2016-Jun-21 15:33N 49°48' W 124°39'3 3.5
2016-Jun-21 14:33N 49°50' W 124°34'1413.6
2016-Jun-21 13:33N 49°45' W 124°54'1 0.6
2016-Jun-21 11:20N 49°44' W 124°55'0 0.0
2016-Jun-21 10:26N 49°44' W 124°55'0 0.0
2016-Jun-21 09:32N 49°44' W 124°55'7 1.3
2016-Jun-21 04:34N 49°47' W 124°46'10 9.5
2016-Jun-21 03:34N 49°50' W 124°32'1313.0
2016-Jun-21 02:34N 49°46' W 124°51'3 3.3
2016-Jun-21 01:33N 49°44' W 124°55'1312.9
2016-Jun-21 00:33N 49°49' W 124°37'2 1.5
2016-Jun-20 23:33N 49°50' W 124°35'1313.5
2016-Jun-20 22:33N 49°45' W 124°54'1 0.9
2016-Jun-20 21:33N 49°44' W 124°55'0 0.0
2016-Jun-20 20:32N 49°44' W 124°55'8 8.6
2016-Jun-20 19:34N 49°47' W 124°43'8 7.8
2016-Jun-20 18:34N 49°50' W 124°32'1110.9
2016-Jun-20 17:33N 49°46' W 124°48'5 5.2
2016-Jun-20 16:33N 49°44' W 124°55'1212.2
2016-Jun-20 15:33N 49°49' W 124°38'3 3.2
2016-Jun-20 14:34N 49°50' W 124°33'1313.2
2016-Jun-20 13:33N 49°45' W 124°52'2 2.1
2016-Jun-20 12:33N 49°44' W 124°55'0 0.0
2016-Jun-20 10:24N 49°44' W 124°55'0 0.0
2016-Jun-20 05:30N 49°44' W 124°55'1111.4
2016-Jun-20 04:33N 49°48' W 124°40'4 4.0
2016-Jun-20 03:33N 49°50' W 124°34'1413.9
2016-Jun-20 02:33N 49°45' W 124°54'1 0.9
2016-Jun-20 01:31N 49°44' W 124°55'1212.6
2016-Jun-20 00:33N 49°49' W 124°38'4 3.6
2016-Jun-19 23:33N 49°50' W 124°33'1312.8
2016-Jun-19 22:33N 49°46' W 124°51'3 1.2
2016-Jun-19 20:14N 49°44' W 124°55'811.5
2016-Jun-19 19:33N 49°47' W 124°44'8 8.4
2016-Jun-19 18:33N 49°50' W 124°32'1010.4
2016-Jun-19 17:33N 49°47' W 124°47'6 5.7
2016-Jun-19 16:32N 49°44' W 124°55'1111.0
2016-Jun-19 15:33N 49°48' W 124°40'4 4.3
2016-Jun-19 14:33N 49°50' W 124°34'1413.4
2016-Jun-19 13:32N 49°45' W 124°54'6 0.7
2016-Jun-19 04:33N 49°47' W 124°45'9 8.8
2016-Jun-19 03:32N 49°50' W 124°32'1313.3
2016-Jun-19 02:33N 49°46' W 124°51'3 3.0
2016-Jun-19 01:33N 49°44' W 124°55'1212.4
2016-Jun-19 00:34N 49°49' W 124°38'4 3.5
2016-Jun-18 23:33N 49°50' W 124°32'1313.0
2016-Jun-18 22:33N 49°46' W 124°51'3 2.4
2016-Jun-18 21:24N 49°44' W 124°55'0 0.1
2016-Jun-18 20:34N 49°44' W 124°55'1313.4
2016-Jun-18 19:34N 49°49' W 124°36'3 2.7
2016-Jun-18 18:34N 49°50' W 124°32'1110.7
2016-Jun-18 17:34N 49°46' W 124°47'6 4.8
2016-Jun-18 16:24N 49°44' W 124°55'1112.8
2016-Jun-18 15:33N 49°48' W 124°40'4 3.7
2016-Jun-18 14:33N 49°50' W 124°35'1413.9
2016-Jun-18 13:33N 49°45' W 124°55'1 0.2
2016-Jun-18 09:31N 49°44' W 124°55'0 0.0
2016-Jun-18 08:31N 49°44' W 124°55'8 2.0
2016-Jun-18 04:34N 49°47' W 124°44'8 8.1
2016-Jun-18 03:33N 49°50' W 124°32'1313.5
2016-Jun-18 02:33N 49°45' W 124°51'3 2.8
2016-Jun-18 01:32N 49°44' W 124°55'1312.9
2016-Jun-18 00:33N 49°49' W 124°37'3 3.1
2016-Jun-17 23:33N 49°50' W 124°33'1312.7
2016-Jun-17 22:33N 49°45' W 124°51'3 2.8
2016-Jun-17 21:32N 49°44' W 124°55'0 0.0
2016-Jun-17 20:30N 49°44' W 124°55'1313.4
2016-Jun-17 19:33N 49°49' W 124°37'3 3.4
2016-Jun-17 18:33N 49°50' W 124°32'1312.8
2016-Jun-17 17:33N 49°45' W 124°51'3 3.0
2016-Jun-17 16:33N 49°44' W 124°55'1413.9
2016-Jun-17 15:33N 49°49' W 124°35'1 0.7
2016-Jun-17 14:33N 49°50' W 124°35'1312.8
2016-Jun-17 13:33N 49°45' W 124°53'6 0.7
2016-Jun-17 04:34N 49°47' W 124°44'8 8.3
2016-Jun-17 03:34N 49°50' W 124°32'1313.2
2016-Jun-17 02:33N 49°45' W 124°51'3 2.9
2016-Jun-17 01:33N 49°44' W 124°55'1313.4
2016-Jun-17 00:34N 49°49' W 124°36'3 2.8
2016-Jun-16 23:34N 49°50' W 124°32'1313.4
2016-Jun-16 22:33N 49°45' W 124°51'3 1.2
2016-Jun-16 20:15N 49°44' W 124°55'912.6
2016-Jun-16 19:33N 49°48' W 124°43'8 7.5
2016-Jun-16 18:33N 49°50' W 124°32'1212.4
2016-Jun-16 17:33N 49°46' W 124°50'3 3.3
2016-Jun-16 16:33N 49°45' W 124°55'1414.2
2016-Jun-16 15:34N 49°49' W 124°34'1 1.1
2016-Jun-16 14:34N 49°50' W 124°36'1313.5
2016-Jun-16 13:34N 49°45' W 124°55'0 0.1
2016-Jun-16 11:15N 49°44' W 124°55'0 0.0
2016-Jun-16 10:27N 49°44' W 124°55'0 0.0
2016-Jun-16 09:30N 49°44' W 124°55'0 0.0
2016-Jun-16 08:33N 49°44' W 124°55'0 0.0
2016-Jun-16 07:33N 49°44' W 124°55'0 0.0
2016-Jun-16 06:33N 49°44' W 124°55'0 0.0
2016-Jun-16 05:33N 49°44' W 124°55'6 5.7
2016-Jun-16 04:33N 49°47' W 124°47'1110.5
2016-Jun-16 03:33N 49°50' W 124°32'9 8.7
2016-Jun-16 02:33N 49°47' W 124°45'8 7.6
2016-Jun-16 01:34N 49°44' W 124°55'0 0.0
2016-Jun-16 00:33N 49°44' W 124°55'0 0.0
2016-Jun-15 23:33N 49°44' W 124°55'0 0.0
2016-Jun-15 22:33N 49°44' W 124°55'0 0.0
2016-Jun-15 21:33N 49°44' W 124°55'0 0.0
2016-Jun-15 20:33N 49°44' W 124°55'  
Track history (hours):
 
Tides and Currents Weather Stations Pressure Air Temp Water Temp Dewpoint Dewpoint Depression Visibility Wind Speed Wind Dir Waves Ship Positions

Queen Of Burnaby

Last reported at 2016-Jun-25 20:10 UTC. Time now 2016-Jun-25 21:27 UTC.
Position N 49°44' W 124°55'.

Length 130 m; draft 4 m.

Type: Passenger vessel. MMSI: 316001246.

Date/timePositionNaut miles runAvg speedWind from/ knotsBaromVisibWave heightAir tempDewpointWater temp
2016-Jun-25 20:10N 49°44' W 124°55'812.4
2016-Jun-25 19:33N 49°47' W 124°45'9 8.6
2016-Jun-25 18:33N 49°50' W 124°32'1110.9
2016-Jun-25 17:33N 49°46' W 124°48'5 5.2
2016-Jun-25 16:33N 49°44' W 124°55'1212.4
2016-Jun-25 15:34N 49°49' W 124°37'3 2.7
2016-Jun-25 14:33N 49°50' W 124°34'1413.7
2016-Jun-25 13:33N 49°45' W 124°54'1 1.1
2016-Jun-25 12:21N 49°44' W 124°55'0 0.0
2016-Jun-25 11:33N 49°44' W 124°55'0 0.0
2016-Jun-25 07:27N 49°44' W 124°55'7 2.3
2016-Jun-25 04:34N 49°47' W 124°46'9 9.0
2016-Jun-25 03:31N 49°50' W 124°32'1313.2
2016-Jun-25 02:33N 49°46' W 124°50'3 3.5
2016-Jun-25 01:33N 49°44' W 124°55'1313.4
2016-Jun-25 00:34N 49°49' W 124°36'2 1.6
2016-Jun-24 23:34N 49°50' W 124°34'1413.6
2016-Jun-24 22:32N 49°45' W 124°54'1 0.5
2016-Jun-24 20:23N 49°44' W 124°55'1112.7
2016-Jun-24 19:34N 49°48' W 124°40'6 5.7
2016-Jun-24 18:33N 49°50' W 124°32'1111.3
2016-Jun-24 17:33N 49°46' W 124°48'5 5.0
2016-Jun-24 16:33N 49°44' W 124°55'1312.8
2016-Jun-24 15:33N 49°49' W 124°37'2 2.2
2016-Jun-24 14:33N 49°50' W 124°34'1313.2
2016-Jun-24 13:33N 49°45' W 124°53'2 1.8
2016-Jun-24 12:33N 49°44' W 124°55'0 0.0
2016-Jun-24 11:33N 49°44' W 124°55'0 0.0
2016-Jun-24 10:33N 49°44' W 124°55'0 0.0
2016-Jun-24 09:33N 49°44' W 124°55'7 1.5
2016-Jun-24 04:33N 49°48' W 124°45'9 9.0
2016-Jun-24 03:33N 49°50' W 124°32'1313.1
2016-Jun-24 02:34N 49°45' W 124°51'3 3.0
2016-Jun-24 01:33N 49°44' W 124°55'1413.8
2016-Jun-24 00:33N 49°49' W 124°35'1 0.6
2016-Jun-23 23:33N 49°50' W 124°35'1313.3
2016-Jun-23 22:33N 49°45' W 124°54'1 0.9
2016-Jun-23 21:24N 49°44' W 124°55'0 0.0
2016-Jun-23 20:18N 49°44' W 124°55'912.3
2016-Jun-23 19:33N 49°48' W 124°42'7 7.0
2016-Jun-23 18:33N 49°50' W 124°32'1211.5
2016-Jun-23 17:34N 49°46' W 124°49'4 4.5
2016-Jun-23 16:33N 49°45' W 124°55'1413.6
2016-Jun-23 15:33N 49°49' W 124°35'1 1.0
2016-Jun-23 14:33N 49°50' W 124°36'1313.1
2016-Jun-23 13:33N 49°45' W 124°54'1 0.3
2016-Jun-23 11:08N 49°44' W 124°55'0 0.0
2016-Jun-23 10:32N 49°44' W 124°55'0 0.0
2016-Jun-23 09:05N 49°44' W 124°55'5 1.1
2016-Jun-23 04:33N 49°47' W 124°48'1111.1
2016-Jun-23 03:33N 49°50' W 124°32'8 8.1
2016-Jun-23 02:33N 49°47' W 124°44'8 8.0
2016-Jun-23 01:33N 49°44' W 124°55'0 0.0
2016-Jun-22 23:27N 49°44' W 124°55'0 0.0
2016-Jun-22 20:16N 49°44' W 124°55'912.8
2016-Jun-22 19:34N 49°48' W 124°42'7 7.2
2016-Jun-22 18:33N 49°50' W 124°32'10 9.8
2016-Jun-22 17:33N 49°47' W 124°46'6 5.9
2016-Jun-22 16:29N 49°44' W 124°55'1212.9
2016-Jun-22 15:34N 49°49' W 124°38'3 2.9
2016-Jun-22 14:33N 49°50' W 124°34'1312.8
2016-Jun-22 13:33N 49°45' W 124°53'2 0.9
2016-Jun-22 11:30N 49°44' W 124°55'0 0.0
2016-Jun-22 10:24N 49°44' W 124°55'0 0.0
2016-Jun-22 08:30N 49°44' W 124°55'0 0.0
2016-Jun-22 07:30N 49°44' W 124°55'8 2.8
2016-Jun-22 04:34N 49°47' W 124°44'8 8.1
2016-Jun-22 03:33N 49°50' W 124°32'1312.8
2016-Jun-22 02:33N 49°46' W 124°51'3 3.2
2016-Jun-22 01:30N 49°44' W 124°55'1212.6
2016-Jun-22 00:33N 49°49' W 124°38'4 4.2
2016-Jun-21 23:34N 49°50' W 124°32'1313.4
2016-Jun-21 22:33N 49°46' W 124°52'3 2.5
2016-Jun-21 21:31N 49°44' W 124°55'0 0.0
2016-Jun-21 20:28N 49°44' W 124°55'7 7.4
2016-Jun-21 19:33N 49°47' W 124°46'10 9.5
2016-Jun-21 18:33N 49°50' W 124°32'9 9.4
2016-Jun-21 17:33N 49°47' W 124°46'7 6.3
2016-Jun-21 16:28N 49°44' W 124°55'1112.4
2016-Jun-21 15:33N 49°48' W 124°39'3 3.5
2016-Jun-21 14:33N 49°50' W 124°34'1413.6
2016-Jun-21 13:33N 49°45' W 124°54'1 0.6
2016-Jun-21 11:20N 49°44' W 124°55'0 0.0
2016-Jun-21 10:26N 49°44' W 124°55'0 0.0
2016-Jun-21 09:32N 49°44' W 124°55'7 1.3
2016-Jun-21 04:34N 49°47' W 124°46'10 9.5
2016-Jun-21 03:34N 49°50' W 124°32'1313.0
2016-Jun-21 02:34N 49°46' W 124°51'3 3.3
2016-Jun-21 01:33N 49°44' W 124°55'1312.9
2016-Jun-21 00:33N 49°49' W 124°37'2 1.5
2016-Jun-20 23:33N 49°50' W 124°35'1313.5
2016-Jun-20 22:33N 49°45' W 124°54'1 0.9
2016-Jun-20 21:33N 49°44' W 124°55'0 0.0
2016-Jun-20 20:32N 49°44' W 124°55'8 8.6
2016-Jun-20 19:34N 49°47' W 124°43'8 7.8
2016-Jun-20 18:34N 49°50' W 124°32'1110.9
2016-Jun-20 17:33N 49°46' W 124°48'5 5.2
2016-Jun-20 16:33N 49°44' W 124°55'1212.2
2016-Jun-20 15:33N 49°49' W 124°38'3 3.2
2016-Jun-20 14:34N 49°50' W 124°33'1313.2
2016-Jun-20 13:33N 49°45' W 124°52'2 2.1
2016-Jun-20 12:33N 49°44' W 124°55'0 0.0
2016-Jun-20 10:24N 49°44' W 124°55'0 0.0
2016-Jun-20 05:30N 49°44' W 124°55'1111.4
2016-Jun-20 04:33N 49°48' W 124°40'4 4.0
2016-Jun-20 03:33N 49°50' W 124°34'1413.9
2016-Jun-20 02:33N 49°45' W 124°54'1 0.9
2016-Jun-20 01:31N 49°44' W 124°55'1212.6
2016-Jun-20 00:33N 49°49' W 124°38'4 3.6
2016-Jun-19 23:33N 49°50' W 124°33'1312.8
2016-Jun-19 22:33N 49°46' W 124°51'3 1.2
2016-Jun-19 20:14N 49°44' W 124°55'811.5
2016-Jun-19 19:33N 49°47' W 124°44'8 8.4
2016-Jun-19 18:33N 49°50' W 124°32'1010.4
2016-Jun-19 17:33N 49°47' W 124°47'6 5.7
2016-Jun-19 16:32N 49°44' W 124°55'1111.0
2016-Jun-19 15:33N 49°48' W 124°40'4 4.3
2016-Jun-19 14:33N 49°50' W 124°34'1413.4
2016-Jun-19 13:32N 49°45' W 124°54'6 0.7
2016-Jun-19 04:33N 49°47' W 124°45'9 8.8
2016-Jun-19 03:32N 49°50' W 124°32'1313.3
2016-Jun-19 02:33N 49°46' W 124°51'3 3.0
2016-Jun-19 01:33N 49°44' W 124°55'1212.4
2016-Jun-19 00:34N 49°49' W 124°38'4 3.5
2016-Jun-18 23:33N 49°50' W 124°32'1313.0
2016-Jun-18 22:33N 49°46' W 124°51'3 2.4
2016-Jun-18 21:24N 49°44' W 124°55'0 0.1
2016-Jun-18 20:34N 49°44' W 124°55'1313.4
2016-Jun-18 19:34N 49°49' W 124°36'3 2.7
2016-Jun-18 18:34N 49°50' W 124°32'1110.7
2016-Jun-18 17:34N 49°46' W 124°47'6 4.8
2016-Jun-18 16:24N 49°44' W 124°55'1112.8
2016-Jun-18 15:33N 49°48' W 124°40'4 3.7
2016-Jun-18 14:33N 49°50' W 124°35'1413.9
2016-Jun-18 13:33N 49°45' W 124°55'1 0.2
2016-Jun-18 09:31N 49°44' W 124°55'0 0.0
2016-Jun-18 08:31N 49°44' W 124°55'8 2.0
2016-Jun-18 04:34N 49°47' W 124°44'8 8.1
2016-Jun-18 03:33N 49°50' W 124°32'1313.5
2016-Jun-18 02:33N 49°45' W 124°51'3 2.8
2016-Jun-18 01:32N 49°44' W 124°55'1312.9
2016-Jun-18 00:33N 49°49' W 124°37'3 3.1
2016-Jun-17 23:33N 49°50' W 124°33'1312.7
2016-Jun-17 22:33N 49°45' W 124°51'3 2.8
2016-Jun-17 21:32N 49°44' W 124°55'0 0.0
2016-Jun-17 20:30N 49°44' W 124°55'1313.4
2016-Jun-17 19:33N 49°49' W 124°37'3 3.4
2016-Jun-17 18:33N 49°50' W 124°32'1312.8
2016-Jun-17 17:33N 49°45' W 124°51'3 3.0
2016-Jun-17 16:33N 49°44' W 124°55'1413.9
2016-Jun-17 15:33N 49°49' W 124°35'1 0.7
2016-Jun-17 14:33N 49°50' W 124°35'1312.8
2016-Jun-17 13:33N 49°45' W 124°53'6 0.7
2016-Jun-17 04:34N 49°47' W 124°44'8 8.3
2016-Jun-17 03:34N 49°50' W 124°32'1313.2
2016-Jun-17 02:33N 49°45' W 124°51'3 2.9
2016-Jun-17 01:33N 49°44' W 124°55'1313.4
2016-Jun-17 00:34N 49°49' W 124°36'3 2.8
2016-Jun-16 23:34N 49°50' W 124°32'1313.4
2016-Jun-16 22:33N 49°45' W 124°51'3 1.2
2016-Jun-16 20:15N 49°44' W 124°55'912.6
2016-Jun-16 19:33N 49°48' W 124°43'8 7.5
2016-Jun-16 18:33N 49°50' W 124°32'1212.4
2016-Jun-16 17:33N 49°46' W 124°50'3 3.3
2016-Jun-16 16:33N 49°45' W 124°55'1414.2
2016-Jun-16 15:34N 49°49' W 124°34'1 1.1
2016-Jun-16 14:34N 49°50' W 124°36'1313.5
2016-Jun-16 13:34N 49°45' W 124°55'0 0.1
2016-Jun-16 11:15N 49°44' W 124°55'0 0.0
2016-Jun-16 10:27N 49°44' W 124°55'0 0.0
2016-Jun-16 09:30N 49°44' W 124°55'0 0.0
2016-Jun-16 08:33N 49°44' W 124°55'0 0.0
2016-Jun-16 07:33N 49°44' W 124°55'0 0.0
2016-Jun-16 06:33N 49°44' W 124°55'0 0.0
2016-Jun-16 05:33N 49°44' W 124°55'6 5.7
2016-Jun-16 04:33N 49°47' W 124°47'1110.5
2016-Jun-16 03:33N 49°50' W 124°32'9 8.7
2016-Jun-16 02:33N 49°47' W 124°45'8 7.6
2016-Jun-16 01:34N 49°44' W 124°55'0 0.0
2016-Jun-16 00:33N 49°44' W 124°55'0 0.0
2016-Jun-15 23:33N 49°44' W 124°55'0 0.0
2016-Jun-15 22:33N 49°44' W 124°55'0 0.0
2016-Jun-15 21:33N 49°44' W 124°55'0 0.0
2016-Jun-15 20:33N 49°44' W 124°55'  

Dump ship's entire track history